Time;durP1;ratioP1;P1;durP2;ratioP2;P2;SDS_P1;SDS_P2;PMS_P1;PMS_P2;Temp;Humidity;BMP_temperature;BMP_pressure;BME280_temperature;BME280_humidity;BME280_pressure;Samples;Min_cycle;Max_cycle;Signal;HPM_P1;HPM_P2
2021/12/16 00:02:33;;;;;;;26.73;14.10;;;1.90;99.90;;;;;;5093072;28;20423;-70
2021/12/16 00:05:26;;;;;;;21.80;13.10;;;2.00;99.90;;;;;;5092779;28;20540;-72
2021/12/16 00:07:58;;;;;;;19.50;12.97;;;2.10;99.90;;;;;;5093036;28;20599;-70
2021/12/16 00:10:34;;;;;;;25.47;13.33;;;2.00;99.90;;;;;;5092852;28;20479;-70
2021/12/16 00:29:58;;;;;;;21.17;12.23;;;2.00;99.90;;;;;;5092750;28;20504;-69
2021/12/16 00:32:45;;;;;;;22.57;12.17;;;2.10;99.90;;;;;;5092216;28;20944;-69
2021/12/16 00:35:15;;;;;;;23.90;13.63;;;2.00;99.90;;;;;;5092524;28;20961;-69
2021/12/16 00:37:42;;;;;;;23.00;13.13;;;1.90;99.90;;;;;;5092326;28;20449;-69
2021/12/16 00:40:13;;;;;;;21.77;14.10;;;2.00;99.90;;;;;;5091960;28;20533;-69
2021/12/16 00:42:47;;;;;;;24.00;11.63;;;2.20;99.90;;;;;;5092345;28;20479;-69
2021/12/16 00:48:21;;;;;;;20.40;12.13;;;2.20;99.90;;;;;;5085691;28;20449;-69
2021/12/16 00:56:19;;;;;;;22.70;11.63;;;2.10;99.90;;;;;;5092209;28;20993;-69
2021/12/16 00:58:48;;;;;;;22.63;11.70;;;2.10;99.90;;;;;;5091810;28;20848;-69
2021/12/16 01:01:29;;;;;;;27.27;13.50;;;2.00;99.90;;;;;;5091849;28;20451;-68
2021/12/16 01:04:15;;;;;;;21.67;12.50;;;2.00;99.90;;;;;;5091895;28;20482;-69
2021/12/16 01:07:01;;;;;;;21.10;11.50;;;1.80;99.90;;;;;;5092161;28;20566;-68
2021/12/16 01:34:39;;;;;;;18.90;10.50;;;2.00;99.90;;;;;;5069805;28;20564;-70
2021/12/16 01:37:40;;;;;;;17.33;10.37;;;2.00;99.90;;;;;;5091165;28;20456;-70
2021/12/16 01:40:18;;;;;;;19.47;9.80;;;2.10;99.90;;;;;;5090399;28;20980;-69
2021/12/16 01:49:06;;;;;;;21.27;11.40;;;2.10;99.90;;;;;;5079738;28;20557;-70
2021/12/16 01:51:39;;;;;;;17.23;10.90;;;2.10;99.90;;;;;;5090665;28;20530;-69
2021/12/16 01:54:37;;;;;;;22.93;9.93;;;2.00;99.90;;;;;;5090770;28;20912;-69
2021/12/16 01:57:13;;;;;;;16.93;10.60;;;2.00;99.90;;;;;;5090699;28;20972;-69
2021/12/16 01:59:42;;;;;;;24.70;11.97;;;2.00;99.90;;;;;;5090613;28;20478;-69
2021/12/16 02:02:18;;;;;;;18.23;9.77;;;2.00;99.90;;;;;;5090863;28;20451;-69
2021/12/16 02:05:08;;;;;;;15.30;10.17;;;1.80;99.90;;;;;;5090374;28;20492;-69
2021/12/16 02:07:51;;;;;;;19.40;11.00;;;1.90;99.90;;;;;;5090583;28;20461;-69
2021/12/16 02:10:23;;;;;;;22.20;11.10;;;1.90;99.90;;;;;;5090672;28;20825;-69
2021/12/16 02:13:09;;;;;;;15.47;9.80;;;2.00;99.90;;;;;;5090302;28;20542;-68
2021/12/16 02:29:26;;;;;;;18.47;10.83;;;2.20;99.90;;;;;;5090075;28;20482;-69
2021/12/16 02:32:03;;;;;;;18.30;11.10;;;2.30;99.90;;;;;;5090103;28;20807;-69
2021/12/16 02:34:45;;;;;;;19.53;11.00;;;2.40;99.90;;;;;;5089983;28;20750;-69
2021/12/16 02:37:17;;;;;;;18.27;11.03;;;2.40;99.90;;;;;;5089867;28;21064;-69
2021/12/16 02:39:45;;;;;;;19.00;10.40;;;2.30;99.90;;;;;;5089949;28;20473;-69
2021/12/16 02:42:18;;;;;;;17.33;11.23;;;2.30;99.90;;;;;;5090266;28;20447;-70
2021/12/16 02:50:27;;;;;;;17.23;10.73;;;2.30;99.90;;;;;;5046747;28;20447;-69
2021/12/16 02:52:56;;;;;;;19.53;12.60;;;2.40;99.90;;;;;;5046882;28;20513;-70
2021/12/16 02:55:23;;;;;;;14.67;9.70;;;2.40;99.90;;;;;;5065831;28;20940;-69
2021/12/16 02:57:59;;;;;;;17.83;10.67;;;2.40;99.90;;;;;;5089697;28;20788;-69
2021/12/16 03:00:26;;;;;;;18.47;10.60;;;2.50;99.90;;;;;;5069522;28;20448;-69
2021/12/16 03:02:55;;;;;;;17.77;10.63;;;2.50;99.90;;;;;;5069682;28;20546;-69
2021/12/16 03:05:22;;;;;;;20.67;12.63;;;2.40;99.90;;;;;;5069819;28;20845;-70
2021/12/16 03:07:51;;;;;;;20.93;12.80;;;2.40;99.90;;;;;;5069471;28;20461;-69
2021/12/16 03:11:00;;;;;;;19.73;11.23;;;2.40;99.90;;;;;;5069548;28;20516;-69
2021/12/16 03:13:29;;;;;;;18.93;10.90;;;2.40;99.90;;;;;;5069297;28;20491;-70
2021/12/16 03:16:08;;;;;;;19.03;11.10;;;2.50;99.90;;;;;;5069550;28;20460;-69
2021/12/16 03:18:43;;;;;;;18.40;11.83;;;2.50;99.90;;;;;;5069419;28;20480;-69
2021/12/16 03:21:17;;;;;;;18.30;11.13;;;2.50;99.90;;;;;;5069599;28;20452;-70
2021/12/16 03:34:58;;;;;;;19.03;10.13;;;2.60;99.90;;;;;;5068558;28;20446;-70
2021/12/16 03:37:25;;;;;;;16.97;10.70;;;2.60;99.90;;;;;;5069365;28;20853;-70
2021/12/16 03:39:55;;;;;;;18.67;10.63;;;2.60;99.90;;;;;;5069402;28;20470;-69
2021/12/16 03:42:26;;;;;;;18.30;10.80;;;2.70;99.90;;;;;;5069222;28;20441;-70
2021/12/16 03:44:58;;;;;;;18.50;10.93;;;2.70;99.90;;;;;;5069511;28;20481;-70
2021/12/16 03:47:35;;;;;;;18.03;10.57;;;2.70;99.90;;;;;;5069364;28;20545;-69
2021/12/16 03:50:05;;;;;;;21.90;11.60;;;2.70;99.90;;;;;;5068950;28;20990;-70
2021/12/16 03:52:32;;;;;;;18.17;11.20;;;2.80;99.90;;;;;;5069360;28;20450;-71
2021/12/16 03:54:59;;;;;;;17.43;10.77;;;2.80;99.90;;;;;;5069246;28;20458;-70
2021/12/16 03:57:30;;;;;;;16.60;11.20;;;2.70;99.90;;;;;;5069158;28;20953;-70
2021/12/16 03:59:58;;;;;;;17.20;9.80;;;2.70;99.90;;;;;;5086234;28;20516;-70
2021/12/16 04:02:29;;;;;;;13.90;10.13;;;2.70;99.90;;;;;;5090940;28;20459;-70
2021/12/16 04:04:56;;;;;;;16.40;11.30;;;2.80;99.90;;;;;;5092928;28;20493;-71
2021/12/16 04:07:26;;;;;;;15.57;10.73;;;2.70;99.90;;;;;;5092581;28;20447;-70
2021/12/16 04:09:54;;;;;;;18.87;12.10;;;2.80;99.90;;;;;;5093070;28;20947;-70
2021/12/16 04:12:25;;;;;;;19.20;11.20;;;2.90;99.90;;;;;;5092327;28;20479;-72
2021/12/16 04:14:56;;;;;;;15.23;10.10;;;2.80;99.90;;;;;;5092374;28;20460;-70
2021/12/16 04:17:26;;;;;;;19.17;11.80;;;2.80;99.90;;;;;;5092603;28;20456;-70
2021/12/16 04:19:53;;;;;;;19.90;12.40;;;2.90;99.90;;;;;;5092929;28;20467;-69
2021/12/16 04:22:28;;;;;;;17.50;9.90;;;2.90;99.90;;;;;;5092826;28;20448;-70
2021/12/16 04:24:56;;;;;;;19.73;10.50;;;2.90;99.90;;;;;;5092513;28;20891;-70
2021/12/16 04:27:24;;;;;;;15.60;9.70;;;3.00;99.90;;;;;;5092388;28;20456;-69
2021/12/16 04:29:53;;;;;;;18.80;10.53;;;3.00;99.90;;;;;;5092697;28;20474;-70
2021/12/16 04:32:20;;;;;;;17.87;11.37;;;3.10;99.90;;;;;;5092352;28;20445;-70
2021/12/16 04:34:47;;;;;;;16.27;9.60;;;3.00;99.90;;;;;;5092197;28;20456;-70
2021/12/16 04:37:15;;;;;;;16.03;10.80;;;3.00;99.90;;;;;;5092605;28;20447;-70
2021/12/16 04:39:44;;;;;;;17.40;10.00;;;3.00;99.90;;;;;;5092328;28;20479;-69
2021/12/16 04:42:13;;;;;;;18.00;10.70;;;3.10;99.90;;;;;;5092150;28;20919;-70
2021/12/16 04:44:42;;;;;;;15.77;10.73;;;3.20;99.90;;;;;;5092156;28;20467;-70
2021/12/16 04:47:12;;;;;;;16.47;9.80;;;3.20;99.90;;;;;;5092292;28;20451;-70
2021/12/16 04:49:40;;;;;;;18.00;10.53;;;3.40;99.90;;;;;;5092340;28;20992;-70
2021/12/16 04:52:10;;;;;;;15.97;10.07;;;3.40;99.90;;;;;;5092351;28;20452;-70
2021/12/16 04:54:37;;;;;;;14.70;10.33;;;3.40;99.90;;;;;;5091804;28;20922;-69
2021/12/16 04:57:06;;;;;;;20.73;12.07;;;3.30;99.90;;;;;;5092257;28;20450;-70
2021/12/16 04:59:35;;;;;;;14.97;10.50;;;3.30;99.90;;;;;;5092040;28;20468;-70
2021/12/16 05:02:07;;;;;;;17.43;11.00;;;3.20;99.90;;;;;;5092069;28;20447;-70
2021/12/16 05:04:35;;;;;;;17.47;11.07;;;3.20;99.90;;;;;;5092055;28;20453;-70
2021/12/16 05:07:03;;;;;;;15.17;9.77;;;3.10;99.90;;;;;;5091685;28;20452;-70
2021/12/16 05:12:15;;;;;;;23.10;10.43;;;3.00;99.90;;;;;;5091432;28;20473;-69
2021/12/16 05:14:43;;;;;;;14.50;10.37;;;3.00;99.90;;;;;;5091925;28;20452;-69
2021/12/16 05:17:22;;;;;;;17.37;9.97;;;3.00;99.90;;;;;;5091659;28;20463;-69
2021/12/16 05:19:52;;;;;;;15.00;8.93;;;2.80;99.90;;;;;;5091701;28;20485;-69
2021/12/16 05:25:08;;;;;;;12.87;8.87;;;2.80;99.90;;;;;;5091756;28;20957;-69
2021/12/16 05:27:35;;;;;;;14.70;7.63;;;2.70;99.90;;;;;;5091572;28;20444;-68
2021/12/16 05:30:03;;;;;;;11.37;6.50;;;2.70;99.90;;;;;;5090940;28;20489;-69
2021/12/16 05:32:30;;;;;;;16.00;9.33;;;2.70;99.90;;;;;;5091422;28;20463;-71
2021/12/16 05:34:59;;;;;;;15.80;10.33;;;2.60;99.90;;;;;;5091296;28;20474;-70
2021/12/16 05:37:26;;;;;;;12.30;8.33;;;2.70;99.90;;;;;;5091351;28;20505;-70
2021/12/16 05:39:53;;;;;;;14.13;9.50;;;2.70;99.90;;;;;;5091395;28;20525;-69
2021/12/16 05:42:20;;;;;;;12.10;8.13;;;2.70;99.90;;;;;;5091311;28;20448;-70
2021/12/16 05:44:47;;;;;;;12.83;7.50;;;2.70;99.90;;;;;;5091142;28;20449;-69
2021/12/16 05:47:14;;;;;;;16.20;9.80;;;2.70;99.90;;;;;;5090970;28;20949;-70
2021/12/16 05:49:41;;;;;;;15.70;10.40;;;2.70;99.90;;;;;;5090812;28;20478;-69
2021/12/16 05:52:10;;;;;;;11.93;8.43;;;2.70;99.90;;;;;;5090919;28;20451;-70
2021/12/16 05:54:37;;;;;;;12.57;9.10;;;2.80;99.90;;;;;;5090845;28;20541;-69
2021/12/16 05:57:05;;;;;;;13.03;8.57;;;2.80;99.90;;;;;;5090653;28;20834;-69
2021/12/16 05:59:32;;;;;;;16.13;9.17;;;2.70;99.90;;;;;;5090557;28;20526;-70
2021/12/16 06:01:59;;;;;;;15.20;9.77;;;2.70;99.90;;;;;;5090872;28;20452;-70
2021/12/16 06:04:26;;;;;;;14.40;10.37;;;2.80;99.90;;;;;;5090866;28;20448;-70
2021/12/16 06:06:54;;;;;;;12.73;8.17;;;2.80;99.90;;;;;;5090761;28;20983;-69
2021/12/16 06:09:22;;;;;;;14.60;8.97;;;2.80;99.90;;;;;;5090693;28;20465;-70
2021/12/16 06:11:51;;;;;;;16.63;9.10;;;2.80;99.90;;;;;;5090314;28;20457;-72
2021/12/16 06:14:24;;;;;;;16.60;8.77;;;2.80;99.90;;;;;;5090496;28;21133;-70
2021/12/16 06:22:40;;;;;;;14.40;9.67;;;2.70;99.90;;;;;;5090286;28;20928;-71
2021/12/16 06:28:02;;;;;;;12.60;8.30;;;2.50;99.90;;;;;;5090303;28;20439;-71
2021/12/16 06:30:32;;;;;;;15.53;9.07;;;2.40;99.90;;;;;;5089798;28;20456;-70
2021/12/16 06:33:00;;;;;;;13.50;8.47;;;2.40;99.90;;;;;;5090231;28;20455;-70
2021/12/16 06:35:27;;;;;;;11.57;7.53;;;2.40;99.90;;;;;;5090088;28;20453;-70
2021/12/16 06:37:54;;;;;;;18.53;7.97;;;2.50;99.90;;;;;;5089888;28;20450;-71
2021/12/16 06:40:23;;;;;;;14.10;9.00;;;2.50;99.90;;;;;;5090109;28;20452;-70
2021/12/16 06:42:53;;;;;;;10.23;7.20;;;2.50;99.90;;;;;;5090292;28;20524;-69
2021/12/16 06:45:25;;;;;;;10.93;7.73;;;2.60;99.90;;;;;;5089682;28;20457;-69
2021/12/16 06:47:57;;;;;;;14.40;8.03;;;2.60;99.90;;;;;;5089783;28;20820;-71
2021/12/16 06:50:34;;;;;;;12.93;7.60;;;2.60;99.90;;;;;;5089890;28;20452;-70
2021/12/16 06:53:03;;;;;;;11.60;7.47;;;2.60;99.90;;;;;;5089795;28;20504;-71
2021/12/16 06:55:39;;;;;;;10.40;7.53;;;2.60;99.90;;;;;;5089607;28;20846;-70
2021/12/16 06:58:16;;;;;;;12.53;8.00;;;2.70;99.90;;;;;;5089326;28;20479;-70
2021/12/16 07:00:47;;;;;;;12.80;8.17;;;2.70;99.90;;;;;;5089634;28;20541;-71
2021/12/16 07:03:20;;;;;;;13.83;8.37;;;2.80;99.90;;;;;;5089912;28;20941;-70
2021/12/16 07:05:52;;;;;;;16.30;9.00;;;2.80;99.90;;;;;;5089505;28;20537;-71
2021/12/16 07:08:21;;;;;;;12.20;9.03;;;2.80;99.90;;;;;;5089833;28;20587;-72
2021/12/16 07:10:56;;;;;;;12.57;9.10;;;2.90;99.90;;;;;;5089824;28;20517;-72
2021/12/16 07:13:34;;;;;;;13.83;7.53;;;3.10;99.90;;;;;;5089119;28;20479;-72
2021/12/16 07:16:02;;;;;;;12.77;8.73;;;3.10;99.90;;;;;;5089907;28;20543;-72
2021/12/16 07:18:29;;;;;;;14.07;8.57;;;3.30;99.90;;;;;;5089233;28;20887;-72
2021/12/16 07:20:56;;;;;;;13.30;8.53;;;3.30;99.90;;;;;;5089403;28;20459;-72
2021/12/16 07:23:24;;;;;;;11.90;7.87;;;3.50;99.90;;;;;;5089678;28;20451;-72
2021/12/16 07:25:53;;;;;;;10.93;7.90;;;3.50;99.90;;;;;;5089517;28;20491;-72
2021/12/16 07:28:20;;;;;;;10.50;7.53;;;3.50;99.90;;;;;;5089501;28;20522;-71
2021/12/16 07:30:48;;;;;;;9.10;6.53;;;3.60;99.90;;;;;;5089858;28;20458;-73
2021/12/16 07:33:16;;;;;;;9.47;6.80;;;3.60;99.90;;;;;;5089750;28;20451;-70
2021/12/16 07:35:46;;;;;;;13.03;8.80;;;3.50;99.90;;;;;;5089600;28;20842;-71
2021/12/16 07:38:14;;;;;;;11.47;7.30;;;3.60;99.90;;;;;;5092832;28;20480;-76
2021/12/16 07:40:43;;;;;;;10.70;6.63;;;3.60;99.90;;;;;;5093696;28;20458;-72
2021/12/16 07:43:24;;;;;;;10.43;7.10;;;3.60;99.90;;;;;;5093472;28;20482;-72
2021/12/16 07:45:53;;;;;;;9.80;7.10;;;3.70;99.90;;;;;;5093282;28;21044;-70
2021/12/16 07:48:21;;;;;;;12.97;7.53;;;3.80;99.90;;;;;;5093269;28;20547;-71
2021/12/16 07:50:51;;;;;;;11.07;7.97;;;3.80;99.90;;;;;;5093097;28;20460;-72
2021/12/16 07:53:18;;;;;;;13.93;7.73;;;3.90;99.90;;;;;;5093540;28;20459;-72
2021/12/16 07:55:47;;;;;;;12.00;7.80;;;3.90;99.90;;;;;;5093606;28;20459;-77
2021/12/16 07:58:17;;;;;;;11.97;7.90;;;3.90;99.90;;;;;;5092877;28;20564;-72
2021/12/16 08:00:44;;;;;;;9.90;6.67;;;3.90;99.90;;;;;;5093034;28;20447;-71
2021/12/16 08:03:13;;;;;;;10.93;6.70;;;3.90;99.90;;;;;;5093174;28;20458;-74
2021/12/16 08:05:44;;;;;;;11.17;7.40;;;3.90;99.90;;;;;;5092427;28;20459;-73
2021/12/16 08:08:11;;;;;;;9.27;6.30;;;3.90;99.90;;;;;;5092834;28;20480;-73
2021/12/16 08:10:40;;;;;;;11.93;7.33;;;3.90;99.90;;;;;;5092365;28;20465;-74
2021/12/16 08:13:07;;;;;;;8.63;6.10;;;3.90;99.90;;;;;;5092591;28;20536;-76
2021/12/16 08:15:36;;;;;;;10.73;5.40;;;3.90;99.90;;;;;;5092743;28;20461;-73
2021/12/16 08:18:03;;;;;;;9.03;6.10;;;4.00;99.90;;;;;;5092325;28;20455;-72
2021/12/16 08:20:31;;;;;;;9.00;6.20;;;3.90;99.90;;;;;;5092543;28;20459;-72
2021/12/16 08:22:59;;;;;;;12.77;6.77;;;3.90;99.90;;;;;;5092544;28;20463;-72
2021/12/16 08:25:28;;;;;;;12.70;6.43;;;3.90;99.90;;;;;;5092629;28;20503;-75
2021/12/16 08:27:55;;;;;;;10.10;5.77;;;3.80;99.90;;;;;;5092335;28;20556;-74
2021/12/16 08:30:29;;;;;;;9.87;5.40;;;3.70;99.90;;;;;;5092680;28;20458;-73
2021/12/16 08:32:59;;;;;;;9.50;5.43;;;3.60;99.90;;;;;;5092746;28;20528;-73
2021/12/16 08:35:27;;;;;;;11.87;6.60;;;3.70;99.90;;;;;;5091919;28;20463;-74
2021/12/16 08:37:55;;;;;;;10.83;6.63;;;3.80;99.90;;;;;;5092127;28;21014;-73
2021/12/16 08:40:24;;;;;;;10.53;5.70;;;3.90;99.90;;;;;;5091932;28;21010;-73
2021/12/16 08:42:52;;;;;;;8.80;5.73;;;3.90;99.90;;;;;;5092384;28;20482;-72
2021/12/16 08:45:22;;;;;;;13.10;7.70;;;4.00;99.90;;;;;;5092304;28;20460;-72
2021/12/16 08:47:49;;;;;;;10.50;6.50;;;3.90;99.90;;;;;;5091697;28;20507;-72
2021/12/16 08:50:22;;;;;;;12.67;7.00;;;4.00;99.90;;;;;;5091848;28;20456;-72
2021/12/16 08:52:49;;;;;;;8.63;6.50;;;4.00;99.90;;;;;;5091996;28;20452;-72
2021/12/16 08:55:17;;;;;;;9.53;6.20;;;4.10;99.90;;;;;;5091886;28;20456;-72
2021/12/16 08:57:45;;;;;;;13.80;7.10;;;4.10;99.90;;;;;;5092090;28;20827;-75
2021/12/16 09:00:15;;;;;;;13.60;7.20;;;4.10;99.90;;;;;;5091684;28;20624;-71
2021/12/16 09:02:42;;;;;;;11.70;7.03;;;4.10;99.90;;;;;;5091903;28;20857;-72
2021/12/16 09:05:10;;;;;;;10.00;6.40;;;4.10;99.90;;;;;;5091631;28;20904;-72
2021/12/16 09:07:39;;;;;;;11.37;7.07;;;4.20;99.90;;;;;;5091572;28;20560;-74
2021/12/16 09:10:10;;;;;;;10.77;6.93;;;4.30;99.90;;;;;;5091690;28;20472;-73
2021/12/16 09:12:50;;;;;;;8.23;5.40;;;4.30;99.90;;;;;;5091530;28;20537;-71
2021/12/16 09:15:18;;;;;;;11.70;6.10;;;4.20;99.90;;;;;;5090370;28;20456;-73
2021/12/16 09:17:45;;;;;;;11.33;6.90;;;4.30;99.90;;;;;;5091562;28;20925;-73
2021/12/16 09:20:13;;;;;;;9.17;6.27;;;4.50;99.90;;;;;;5091490;28;20482;-72
2021/12/16 09:22:43;;;;;;;9.77;6.37;;;4.40;99.90;;;;;;5091619;28;20456;-73
2021/12/16 09:25:12;;;;;;;8.23;5.30;;;4.50;99.90;;;;;;5091604;28;20449;-72
2021/12/16 09:27:42;;;;;;;12.30;5.80;;;4.50;99.90;;;;;;5091110;28;21002;-72
2021/12/16 09:30:17;;;;;;;12.37;6.10;;;4.40;99.90;;;;;;5091208;28;20924;-72
2021/12/16 09:32:45;;;;;;;8.30;5.40;;;4.40;99.90;;;;;;5091524;28;20935;-72
2021/12/16 09:35:13;;;;;;;11.47;5.93;;;4.40;99.90;;;;;;5091319;28;21058;-73
2021/12/16 09:37:41;;;;;;;8.03;5.30;;;4.40;99.90;;;;;;5091346;28;20490;-72
2021/12/16 09:40:12;;;;;;;8.63;5.70;;;4.30;99.90;;;;;;5091049;28;20480;-72
2021/12/16 09:42:39;;;;;;;8.60;4.87;;;4.30;99.90;;;;;;5090889;28;20500;-73
2021/12/16 09:45:09;;;;;;;7.40;4.70;;;4.30;99.90;;;;;;5090838;28;20950;-73
2021/12/16 09:47:37;;;;;;;9.83;6.20;;;4.30;99.90;;;;;;5091326;28;20842;-73
2021/12/16 09:50:06;;;;;;;8.63;5.80;;;4.30;99.90;;;;;;5091103;28;20460;-73
2021/12/16 09:52:33;;;;;;;9.17;5.90;;;4.30;99.90;;;;;;5091255;28;20511;-72
2021/12/16 09:55:02;;;;;;;7.07;4.77;;;4.30;99.90;;;;;;5090575;28;20857;-72
2021/12/16 09:57:31;;;;;;;7.70;4.50;;;4.40;99.90;;;;;;5090794;28;20452;-72
2021/12/16 09:59:58;;;;;;;8.47;4.57;;;4.10;99.90;;;;;;5089739;28;20483;-72
2021/12/16 10:02:26;;;;;;;9.30;5.50;;;4.10;99.90;;;;;;5090878;28;20483;-72
2021/12/16 10:04:53;;;;;;;7.70;4.47;;;4.20;99.90;;;;;;5090755;28;20867;-73
2021/12/16 10:07:27;;;;;;;9.73;5.00;;;4.20;99.90;;;;;;5090488;28;20483;-72
2021/12/16 10:09:55;;;;;;;8.67;4.70;;;4.20;99.90;;;;;;5090555;28;20485;-71
2021/12/16 10:12:29;;;;;;;7.20;5.53;;;4.10;99.90;;;;;;5090290;28;20918;-72
2021/12/16 10:17:20;;;;;;;8.80;5.50;;;4.00;99.90;;;;;;5090796;28;20457;-72
2021/12/16 10:17:52;;;;;;;7.90;4.77;;;4.10;99.90;;;;;;5090314;28;20433;-72
2021/12/16 10:20:23;;;;;;;10.60;5.03;;;4.20;99.90;;;;;;5090127;28;20527;-72
2021/12/16 10:22:51;;;;;;;8.30;5.50;;;4.20;99.90;;;;;;5090550;28;20556;-72
2021/12/16 10:25:25;;;;;;;7.47;5.10;;;4.20;99.90;;;;;;5090532;28;20463;-71
2021/12/16 10:28:01;;;;;;;8.53;5.10;;;4.30;99.90;;;;;;5090157;28;20491;-72
2021/12/16 10:30:49;;;;;;;7.20;5.40;;;4.30;99.90;;;;;;5090239;28;20455;-73
2021/12/16 10:33:30;;;;;;;8.50;5.60;;;4.20;99.90;;;;;;5090171;28;20535;-72
2021/12/16 10:36:09;;;;;;;9.10;5.13;;;4.20;99.90;;;;;;5090441;28;20449;-73
2021/12/16 10:38:40;;;;;;;6.60;4.77;;;4.10;99.90;;;;;;5089842;28;20495;-74
2021/12/16 10:41:09;;;;;;;9.63;5.10;;;4.10;99.90;;;;;;5090128;28;21012;-73
2021/12/16 10:43:41;;;;;;;8.73;4.93;;;4.00;99.90;;;;;;5090097;28;20454;-73
2021/12/16 10:46:12;;;;;;;5.63;3.90;;;4.00;99.90;;;;;;5090124;28;20545;-73
2021/12/16 10:48:42;;;;;;;7.37;4.90;;;4.00;99.90;;;;;;5089740;28;20498;-73
2021/12/16 10:51:32;;;;;;;10.93;5.53;;;4.10;99.90;;;;;;5089999;28;20868;-73
2021/12/16 10:54:25;;;;;;;8.10;5.37;;;4.00;99.90;;;;;;5089466;28;20664;-73
2021/12/16 10:56:58;;;;;;;9.07;4.90;;;4.10;99.90;;;;;;5089851;28;21063;-72
2021/12/16 10:59:34;;;;;;;8.80;5.10;;;4.10;99.90;;;;;;5089586;28;20492;-73
2021/12/16 11:02:19;;;;;;;8.93;4.90;;;4.00;99.90;;;;;;5089949;28;20452;-72
2021/12/16 11:04:50;;;;;;;10.07;6.13;;;3.90;99.90;;;;;;5087903;28;20456;-73
2021/12/16 11:07:22;;;;;;;7.80;5.13;;;4.00;99.90;;;;;;5089848;28;20543;-73
2021/12/16 11:10:08;;;;;;;8.33;5.50;;;4.00;99.90;;;;;;5089375;28;20469;-73
2021/12/16 11:12:44;;;;;;;8.70;5.10;;;4.00;99.90;;;;;;5089253;28;20479;-72
2021/12/16 11:15:17;;;;;;;9.00;5.70;;;4.10;99.90;;;;;;5089649;28;20459;-72
2021/12/16 11:17:48;;;;;;;6.40;4.30;;;4.00;99.90;;;;;;5089643;28;20575;-73
2021/12/16 11:20:23;;;;;;;10.20;6.67;;;4.00;99.90;;;;;;5089554;28;20456;-71
2021/12/16 11:22:54;;;;;;;9.20;5.60;;;3.90;99.90;;;;;;5089267;28;20460;-72
2021/12/16 11:25:25;;;;;;;9.00;5.90;;;4.00;99.90;;;;;;5089483;28;20936;-72
2021/12/16 11:27:55;;;;;;;9.00;5.87;;;4.20;99.90;;;;;;5089419;28;20486;-72
2021/12/16 11:30:40;;;;;;;8.63;5.90;;;4.20;99.90;;;;;;5089820;28;20451;-72
2021/12/16 11:33:18;;;;;;;9.23;6.33;;;4.30;99.90;;;;;;5089301;28;20935;-72
2021/12/16 11:35:50;;;;;;;8.07;5.50;;;4.20;99.90;;;;;;5089391;28;20923;-72
2021/12/16 11:38:22;;;;;;;8.80;6.07;;;4.30;99.90;;;;;;5089441;28;20799;-73
2021/12/16 11:41:09;;;;;;;10.57;6.40;;;4.30;99.90;;;;;;5089307;28;20499;-72
2021/12/16 11:43:47;;;;;;;10.03;6.17;;;4.20;99.90;;;;;;5089510;28;20459;-72
2021/12/16 11:46:21;;;;;;;9.37;5.57;;;4.30;99.90;;;;;;5089306;28;20447;-72
2021/12/16 11:48:51;;;;;;;10.40;7.27;;;4.30;99.90;;;;;;5089409;28;20499;-71
2021/12/16 11:51:22;;;;;;;11.90;5.33;;;4.40;99.90;;;;;;5089459;28;20452;-71
2021/12/16 11:53:51;;;;;;;8.17;5.90;;;4.40;99.90;;;;;;5089559;28;20456;-73
2021/12/16 11:56:20;;;;;;;11.90;6.27;;;4.50;99.90;;;;;;5089382;28;20888;-71
2021/12/16 11:58:48;;;;;;;11.40;6.00;;;4.40;99.90;;;;;;5088822;28;21038;-73
2021/12/16 12:01:23;;;;;;;9.37;6.20;;;4.30;99.90;;;;;;5089501;28;20439;-71
2021/12/16 12:03:50;;;;;;;11.27;6.77;;;4.30;99.90;;;;;;5088865;28;20860;-73
2021/12/16 12:06:23;;;;;;;9.60;7.27;;;4.30;99.90;;;;;;5089249;28;20448;-73
2021/12/16 12:08:52;;;;;;;9.03;6.60;;;4.30;99.90;;;;;;5089211;28;20830;-72
2021/12/16 12:11:21;;;;;;;11.73;8.00;;;4.30;99.90;;;;;;5088990;28;20952;-70
2021/12/16 12:13:51;;;;;;;12.83;7.83;;;4.30;99.90;;;;;;5089041;28;20490;-71
2021/12/16 12:16:21;;;;;;;12.50;7.20;;;4.20;99.90;;;;;;5089349;28;20509;-72
2021/12/16 12:18:51;;;;;;;13.97;7.73;;;4.20;99.90;;;;;;5088724;28;20519;-72
2021/12/16 12:21:23;;;;;;;10.50;7.07;;;4.20;99.90;;;;;;5089000;28;20466;-73
2021/12/16 12:23:51;;;;;;;11.63;8.50;;;4.20;99.90;;;;;;5091776;28;20468;-72
2021/12/16 12:26:20;;;;;;;11.50;7.53;;;4.20;99.90;;;;;;5092652;28;20507;-72
2021/12/16 12:28:50;;;;;;;12.00;7.80;;;4.20;99.90;;;;;;5092721;28;20532;-72
2021/12/16 12:31:25;;;;;;;12.53;8.03;;;4.20;99.90;;;;;;5092434;28;20932;-75
2021/12/16 12:33:52;;;;;;;13.40;8.63;;;4.30;99.90;;;;;;5092560;28;20467;-74
2021/12/16 12:36:21;;;;;;;13.90;8.20;;;4.20;99.90;;;;;;5092728;28;20449;-73
2021/12/16 12:38:48;;;;;;;12.23;7.23;;;4.40;99.90;;;;;;5092586;28;20472;-71
2021/12/16 12:41:17;;;;;;;12.77;8.50;;;4.20;99.90;;;;;;5091960;28;20456;-72
2021/12/16 12:43:45;;;;;;;12.37;8.57;;;4.20;99.90;;;;;;5092392;28;20477;-72
2021/12/16 12:46:13;;;;;;;10.07;8.07;;;4.20;99.90;;;;;;5092019;28;20451;-71
2021/12/16 12:48:43;;;;;;;12.37;8.93;;;4.20;99.90;;;;;;5092243;28;20582;-71
2021/12/16 12:51:11;;;;;;;13.63;9.97;;;4.20;99.90;;;;;;5092422;28;20528;-72
2021/12/16 12:53:47;;;;;;;14.47;8.97;;;4.30;99.90;;;;;;5092348;28;20549;-70
2021/12/16 12:56:16;;;;;;;11.17;8.60;;;4.30;99.90;;;;;;5090753;28;20498;-72
2021/12/16 12:58:58;;;;;;;13.67;8.73;;;4.40;99.90;;;;;;5091865;28;20811;-73
2021/12/16 13:01:37;;;;;;;12.70;8.33;;;4.40;99.90;;;;;;5092055;28;20454;-73
2021/12/16 13:04:09;;;;;;;16.90;9.07;;;4.40;99.90;;;;;;5092366;28;20459;-73
2021/12/16 13:06:59;;;;;;;13.47;9.00;;;4.40;99.90;;;;;;5091908;28;20472;-76
2021/12/16 13:09:32;;;;;;;14.03;9.60;;;4.50;99.90;;;;;;5091667;28;20496;-74
2021/12/16 13:12:02;;;;;;;11.90;7.70;;;4.50;99.90;;;;;;5091847;28;20458;-73
2021/12/16 13:14:45;;;;;;;13.43;8.60;;;4.50;99.90;;;;;;5091495;28;20450;-73
2021/12/16 13:23:20;;;;;;;11.33;7.90;;;4.50;99.90;;;;;;5091300;28;20537;-73
2021/12/16 13:24:20;;;;;;;10.67;7.53;;;4.50;99.90;;;;;;5057324;28;21152;-74
2021/12/16 13:27:03;;;;;;;12.37;8.50;;;4.60;99.90;;;;;;5091952;28;20447;-72
2021/12/16 13:29:35;;;;;;;13.00;8.97;;;4.50;99.90;;;;;;5091303;28;20498;-75
2021/12/16 13:32:13;;;;;;;12.13;8.20;;;4.50;99.90;;;;;;5091486;28;20453;-72
2021/12/16 13:34:52;;;;;;;12.73;9.57;;;4.40;99.90;;;;;;5091375;28;20467;-70
2021/12/16 13:37:24;;;;;;;16.10;9.30;;;4.40;99.90;;;;;;5091479;28;20460;-71
2021/12/16 13:39:58;;;;;;;13.57;9.60;;;4.40;99.90;;;;;;5090995;28;20468;-70
2021/12/16 13:42:26;;;;;;;13.20;8.60;;;4.40;99.90;;;;;;5091072;28;20460;-69
2021/12/16 13:45:02;;;;;;;14.50;8.80;;;4.30;99.90;;;;;;5091113;28;20444;-70
2021/12/16 13:47:58;;;;;;;14.10;8.33;;;4.40;99.90;;;;;;5091071;28;20447;-71
2021/12/16 14:03:08;;;;;;;18.00;10.87;;;4.40;99.90;;;;;;5090897;28;20780;-74
2021/12/16 14:05:50;;;;;;;14.73;10.97;;;4.40;99.90;;;;;;5090780;28;20916;-74
2021/12/16 14:08:34;;;;;;;17.57;9.80;;;4.50;99.90;;;;;;5090782;28;20492;-74
2021/12/16 14:11:16;;;;;;;18.17;10.57;;;4.40;99.90;;;;;;5090936;28;20460;-73
2021/12/16 14:16:34;;;;;;;15.07;9.10;;;4.30;99.90;;;;;;5090730;28;20841;-74
2021/12/16 14:39:07;;;;;;;18.23;8.90;;;4.10;99.90;;;;;;5082375;28;20458;-73
2021/12/16 14:41:49;;;;;;;17.57;8.73;;;3.90;99.90;;;;;;5090667;28;20838;-73
2021/12/16 14:47:15;;;;;;;11.73;8.17;;;3.90;99.90;;;;;;5089101;28;20457;-71
2021/12/16 14:49:44;;;;;;;13.30;8.47;;;3.90;99.90;;;;;;5089549;28;20971;-71
2021/12/16 14:52:15;;;;;;;14.93;8.53;;;3.70;99.90;;;;;;5089924;28;20955;-71
2021/12/16 14:54:54;;;;;;;14.87;9.70;;;3.80;99.90;;;;;;5089617;28;20903;-73
2021/12/16 14:57:25;;;;;;;13.50;9.20;;;3.80;99.90;;;;;;5089728;28;21005;-73
2021/12/16 14:59:53;;;;;;;15.60;9.30;;;3.90;99.90;;;;;;5089623;28;20479;-71
2021/12/16 15:02:22;;;;;;;14.40;10.93;;;4.10;99.90;;;;;;5090228;28;20455;-72
2021/12/16 15:04:49;;;;;;;12.03;9.20;;;4.10;99.90;;;;;;5090099;28;20451;-70
2021/12/16 15:07:16;;;;;;;13.87;9.10;;;4.10;99.90;;;;;;5089958;28;20467;-71
2021/12/16 15:09:44;;;;;;;16.53;8.60;;;4.00;99.90;;;;;;5089689;28;20566;-71
2021/12/16 15:12:18;;;;;;;14.90;9.30;;;4.10;99.90;;;;;;5089615;28;20842;-72
2021/12/16 15:15:09;;;;;;;17.77;9.67;;;4.10;99.90;;;;;;5089565;28;20836;-71
2021/12/16 15:32:05;;;;;;;16.83;10.93;;;4.20;99.90;;;;;;5089840;28;20442;-70
2021/12/16 15:37:31;;;;;;;16.70;8.63;;;4.10;99.90;;;;;;5067780;28;20568;-72
2021/12/16 15:40:13;;;;;;;14.30;10.00;;;4.00;99.90;;;;;;5089538;28;20510;-69
2021/12/16 15:42:46;;;;;;;15.93;8.70;;;3.90;99.90;;;;;;5089592;28;20454;-72
2021/12/16 15:45:18;;;;;;;13.70;9.73;;;3.90;99.90;;;;;;5089329;28;20433;-69
2021/12/16 15:47:50;;;;;;;16.57;10.20;;;3.90;99.90;;;;;;5089302;28;20448;-71
2021/12/16 15:50:22;;;;;;;16.80;9.30;;;3.90;99.90;;;;;;5089338;28;20512;-71
2021/12/16 15:52:52;;;;;;;15.57;9.40;;;4.00;99.90;;;;;;5089489;28;20874;-71